createdAt,value
2022-09-28T00:01:26.013Z,100.00
2022-09-28T00:03:58.345Z,100.00
2022-09-28T00:06:30.434Z,100.00
2022-09-28T00:08:58.585Z,100.00
2022-09-28T00:11:28.361Z,100.00
2022-09-28T00:14:03.783Z,100.00
2022-09-28T00:16:37.974Z,100.00
2022-09-28T00:19:06.725Z,100.00
2022-09-28T00:21:39.243Z,100.00
2022-09-28T00:24:22.951Z,100.00
2022-09-28T00:26:56.883Z,100.00
2022-09-28T00:29:37.053Z,100.00
2022-09-28T00:32:13.447Z,100.00
2022-09-28T00:34:46.143Z,100.00
2022-09-28T00:37:15.290Z,100.00
2022-09-28T00:39:44.103Z,100.00
2022-09-28T00:42:21.266Z,100.00
2022-09-28T00:44:56.050Z,100.00
2022-09-28T00:47:51.044Z,100.00
2022-09-28T00:50:36.815Z,100.00
2022-09-28T00:53:18.518Z,100.00
2022-09-28T00:56:13.527Z,100.00
2022-09-28T00:58:48.433Z,100.00
2022-09-28T01:01:16.826Z,100.00
2022-09-28T01:03:48.125Z,100.00
2022-09-28T01:06:27.719Z,100.00
2022-09-28T01:09:05.075Z,100.00
2022-09-28T01:11:36.345Z,100.00
2022-09-28T01:14:13.589Z,100.00
2022-09-28T01:17:11.913Z,100.00
2022-09-28T01:20:05.697Z,100.00
2022-09-28T01:22:54.486Z,100.00
2022-09-28T01:25:52.519Z,100.00
2022-09-28T01:28:27.259Z,100.00
2022-09-28T01:31:27.196Z,100.00
2022-09-28T01:34:06.001Z,100.00
2022-09-28T01:36:56.853Z,100.00
2022-09-28T01:39:36.457Z,100.00
2022-09-28T01:42:21.714Z,100.00
2022-09-28T01:44:53.387Z,100.00
2022-09-28T01:47:24.527Z,100.00
2022-09-28T01:50:15.262Z,100.00
2022-09-28T01:53:11.213Z,100.00
2022-09-28T01:55:50.306Z,100.00
2022-09-28T01:59:04.078Z,100.00
2022-09-28T02:01:58.800Z,100.00
2022-09-28T02:04:51.621Z,100.00
2022-09-28T02:07:38.698Z,100.00
2022-09-28T02:10:23.362Z,100.00
2022-09-28T02:12:59.542Z,100.00
2022-09-28T02:16:10.041Z,100.00
2022-09-28T02:18:37.805Z,100.00
2022-09-28T02:21:17.581Z,100.00
2022-09-28T02:23:58.413Z,100.00
2022-09-28T02:26:38.094Z,100.00
2022-09-28T02:29:05.790Z,100.00
2022-09-28T02:31:33.542Z,100.00
2022-09-28T02:34:01.363Z,100.00
2022-09-28T02:36:30.626Z,100.00
2022-09-28T02:38:59.207Z,100.00
2022-09-28T02:42:03.298Z,100.00
2022-09-28T02:44:54.577Z,100.00
2022-09-28T02:48:08.849Z,100.00
2022-09-28T02:51:03.232Z,100.00
2022-09-28T02:53:57.312Z,100.00
2022-09-28T02:57:20.761Z,100.00
2022-09-28T03:00:20.445Z,100.00
2022-09-28T03:03:20.578Z,100.00
2022-09-28T03:06:30.796Z,100.00
2022-09-28T03:09:17.666Z,100.00
2022-09-28T03:11:59.498Z,100.00
2022-09-28T03:14:27.965Z,100.00
2022-09-28T03:16:56.482Z,100.00
2022-09-28T03:19:30.752Z,100.00
2022-09-28T03:21:59.288Z,100.00
2022-09-28T03:24:27.998Z,100.00
2022-09-28T03:26:55.692Z,100.00
2022-09-28T03:29:24.257Z,100.00
2022-09-28T03:31:51.880Z,100.00
2022-09-28T03:34:20.382Z,100.00
2022-09-28T03:36:48.011Z,100.00
2022-09-28T03:39:15.680Z,100.00
2022-09-28T03:41:43.475Z,100.00
2022-09-28T03:44:11.140Z,100.00
2022-09-28T03:46:38.791Z,100.00
2022-09-28T03:49:06.410Z,100.00
2022-09-28T03:51:34.048Z,100.00
2022-09-28T03:54:01.975Z,100.00
2022-09-28T03:56:31.488Z,100.00
2022-09-28T03:58:59.121Z,100.00
2022-09-28T04:01:26.963Z,100.00
2022-09-28T04:03:58.636Z,100.00
2022-09-28T04:06:26.863Z,100.00
2022-09-28T04:08:55.044Z,100.00
2022-09-28T04:11:22.677Z,100.00
2022-09-28T04:13:50.900Z,100.00
2022-09-28T04:16:19.130Z,100.00
2022-09-28T04:18:47.956Z,100.00
2022-09-28T04:21:19.543Z,100.00
2022-09-28T04:23:49.152Z,100.00
2022-09-28T04:26:28.546Z,100.00
2022-09-28T04:29:17.575Z,100.00
2022-09-28T04:31:55.853Z,100.00
2022-09-28T04:34:24.370Z,100.00
2022-09-28T04:36:52.016Z,100.00
2022-09-28T04:39:20.101Z,100.00
2022-09-28T04:41:49.489Z,100.00
2022-09-28T04:44:17.156Z,100.00
2022-09-28T04:46:44.778Z,100.00
2022-09-28T04:49:12.665Z,100.00
2022-09-28T04:51:40.327Z,100.00
2022-09-28T04:54:07.953Z,100.00
2022-09-28T04:56:35.589Z,100.00
2022-09-28T04:59:03.198Z,100.00
2022-09-28T05:01:31.369Z,100.00
2022-09-28T05:03:59.130Z,100.00
2022-09-28T05:06:30.643Z,100.00
2022-09-28T05:08:58.391Z,100.00
2022-09-28T05:11:26.012Z,100.00
2022-09-28T05:13:53.709Z,100.00
2022-09-28T05:16:25.278Z,100.00
2022-09-28T05:18:58.393Z,100.00
2022-09-28T05:21:29.388Z,100.00
2022-09-28T05:23:58.410Z,100.00
2022-09-28T05:26:26.915Z,100.00
2022-09-28T05:28:55.584Z,100.00
2022-09-28T05:31:23.324Z,100.00
2022-09-28T05:33:51.916Z,100.00
2022-09-28T05:36:19.982Z,100.00
2022-09-28T05:38:48.518Z,100.00
2022-09-28T05:41:17.064Z,100.00
2022-09-28T05:43:45.888Z,100.00
2022-09-28T05:46:13.638Z,100.00
2022-09-28T05:48:42.246Z,100.00
2022-09-28T05:51:10.468Z,100.00
2022-09-28T05:53:39.113Z,100.00
2022-09-28T05:56:07.714Z,100.00
2022-09-28T05:58:35.433Z,100.00
2022-09-28T06:01:04.212Z,100.00
2022-09-28T06:03:31.928Z,99.20
2022-09-28T06:06:03.379Z,98.87
2022-09-28T06:08:33.126Z,98.61
2022-09-28T06:11:02.393Z,97.94
2022-09-28T06:13:30.234Z,98.14
2022-09-28T06:15:58.875Z,97.01
2022-09-28T06:18:26.618Z,96.04
2022-09-28T06:20:54.327Z,95.32
2022-09-28T06:23:22.008Z,94.23
2022-09-28T06:25:49.695Z,93.56
2022-09-28T06:28:18.152Z,91.92
2022-09-28T06:30:48.288Z,89.70
2022-09-28T06:33:16.514Z,87.43
2022-09-28T06:35:44.232Z,86.88
2022-09-28T06:38:12.230Z,85.66
2022-09-28T06:40:40.207Z,85.59
2022-09-28T06:43:15.118Z,85.67
2022-09-28T06:45:44.219Z,82.67
2022-09-28T06:48:12.477Z,82.67
2022-09-28T06:50:43.734Z,82.29
2022-09-28T06:53:15.490Z,80.17
2022-09-28T06:55:49.207Z,78.38
2022-09-28T06:58:21.716Z,73.77
2022-09-28T07:00:52.720Z,65.30
2022-09-28T07:03:22.981Z,64.51
2022-09-28T07:05:54.541Z,70.88
2022-09-28T07:08:26.060Z,74.08
2022-09-28T07:10:58.422Z,76.33
2022-09-28T07:16:16.377Z,76.40
2022-09-28T07:18:44.038Z,76.19
2022-09-28T07:21:22.501Z,75.00
2022-09-28T07:23:54.330Z,74.02
2022-09-28T07:26:24.582Z,73.59
2022-09-28T07:28:53.929Z,72.52
2022-09-28T07:31:21.589Z,73.11
2022-09-28T07:33:51.848Z,72.65
2022-09-28T07:36:21.043Z,74.43
2022-09-28T07:38:48.694Z,71.02
2022-09-28T07:41:21.779Z,70.60
2022-09-28T07:43:49.993Z,71.06
2022-09-28T07:46:20.827Z,71.37
2022-09-28T07:48:51.832Z,70.62
2022-09-28T07:51:21.364Z,68.01
2022-09-28T07:53:48.977Z,68.51
2022-09-28T07:56:18.362Z,68.77
2022-09-28T07:58:48.725Z,69.70
2022-09-28T08:01:16.910Z,70.41
2022-09-28T08:03:48.693Z,66.25
2022-09-28T08:06:18.007Z,66.14
2022-09-28T08:08:46.046Z,66.34
2022-09-28T08:11:17.957Z,66.32
2022-09-28T08:13:46.700Z,67.82
2022-09-28T08:16:16.223Z,67.07
2022-09-28T08:18:43.941Z,66.18
2022-09-28T08:21:30.261Z,63.26
2022-09-28T08:23:57.926Z,63.59
2022-09-28T08:26:25.888Z,66.37
2022-09-28T08:28:53.555Z,64.69
2022-09-28T08:31:21.179Z,66.96
2022-09-28T08:33:54.483Z,66.39
2022-09-28T08:36:22.307Z,66.74
2022-09-28T08:38:50.724Z,66.13
2022-09-28T08:42:06.862Z,67.22
2022-09-28T08:44:57.365Z,68.61
2022-09-28T08:47:53.468Z,66.05
2022-09-28T08:50:32.315Z,67.74
2022-09-28T08:53:53.535Z,67.02
2022-09-28T08:56:47.701Z,66.84
2022-09-28T08:59:32.129Z,67.95
2022-09-28T09:02:03.982Z,67.29
2022-09-28T09:04:34.493Z,66.37
2022-09-28T09:07:43.421Z,67.50
2022-09-28T09:11:18.920Z,67.50
2022-09-28T09:14:03.254Z,70.23
2022-09-28T09:17:07.482Z,69.36
2022-09-28T09:19:55.323Z,69.15
2022-09-28T09:23:01.281Z,69.40
2022-09-28T09:25:41.178Z,68.63
2022-09-28T09:28:36.286Z,67.78
2022-09-28T09:31:26.747Z,69.06
2022-09-28T09:34:32.581Z,67.21
2022-09-28T09:37:27.946Z,68.85
2022-09-28T09:40:26.352Z,66.83
2022-09-28T09:43:21.320Z,65.53
2022-09-28T09:46:27.971Z,68.13
2022-09-28T09:49:27.329Z,67.43
2022-09-28T09:52:06.792Z,67.84
2022-09-28T09:55:02.775Z,66.06
2022-09-28T09:57:40.831Z,67.53
2022-09-28T10:00:15.521Z,67.32
2022-09-28T10:02:48.585Z,65.25
2022-09-28T10:05:27.808Z,66.66
2022-09-28T10:08:15.552Z,66.14
2022-09-28T10:11:19.454Z,66.56
2022-09-28T10:13:50.381Z,65.93
2022-09-28T10:16:20.010Z,65.39
2022-09-28T10:18:49.911Z,65.60
2022-09-28T10:21:21.795Z,68.21
2022-09-28T10:24:00.578Z,68.02
2022-09-28T10:26:40.228Z,66.20
2022-09-28T10:29:25.420Z,66.19
2022-09-28T10:31:54.824Z,64.97
2022-09-28T10:34:31.206Z,63.03
2022-09-28T10:37:10.192Z,63.96
2022-09-28T10:39:54.174Z,62.16
2022-09-28T10:42:32.847Z,63.02
2022-09-28T10:45:25.371Z,64.10
2022-09-28T10:47:53.052Z,65.04
2022-09-28T10:50:26.760Z,63.38
2022-09-28T10:52:54.906Z,64.52
2022-09-28T10:55:37.006Z,63.76
2022-09-28T10:58:33.152Z,65.54
2022-09-28T11:01:13.736Z,65.00
2022-09-28T11:03:58.886Z,64.18
2022-09-28T11:06:37.271Z,63.81
2022-09-28T11:09:30.862Z,62.80
2022-09-28T11:12:04.224Z,63.14
2022-09-28T11:14:42.451Z,60.68
2022-09-28T11:17:41.718Z,62.36
2022-09-28T11:20:27.799Z,61.35
2022-09-28T11:23:00.859Z,61.62
2022-09-28T11:25:31.453Z,63.28
2022-09-28T11:28:05.734Z,60.08
2022-09-28T11:30:44.625Z,59.62
2022-09-28T11:33:33.876Z,59.01
2022-09-28T11:36:13.444Z,60.14
2022-09-28T11:39:06.388Z,59.03
2022-09-28T11:42:01.692Z,60.58
2022-09-28T11:44:48.953Z,59.18
2022-09-28T11:47:57.703Z,56.90
2022-09-28T11:50:47.878Z,59.61
2022-09-28T11:53:31.716Z,58.87
2022-09-28T11:56:36.569Z,56.77
2022-09-28T11:59:15.026Z,55.50
2022-09-28T12:02:25.744Z,56.36
2022-09-28T12:05:03.104Z,56.64
2022-09-28T12:07:55.061Z,58.02
2022-09-28T12:11:09.973Z,58.48
2022-09-28T12:13:48.314Z,58.71
2022-09-28T12:17:07.328Z,57.88
2022-09-28T12:20:20.162Z,57.31
2022-09-28T12:23:07.496Z,57.17
2022-09-28T12:25:46.987Z,58.40
2022-09-28T12:28:40.227Z,57.44
2022-09-28T12:31:39.226Z,58.80
2022-09-28T12:34:10.447Z,58.79
2022-09-28T12:37:33.338Z,59.60
2022-09-28T12:40:42.280Z,59.63
2022-09-28T12:43:54.659Z,61.39
2022-09-28T12:47:06.168Z,60.43
2022-09-28T12:53:16.501Z,58.75
2022-09-28T12:56:01.143Z,59.78
2022-09-28T12:59:08.374Z,60.15
2022-09-28T13:02:19.696Z,59.56
2022-09-28T13:05:36.589Z,58.86
2022-09-28T13:08:31.134Z,59.15
2022-09-28T13:12:09.900Z,58.23
2022-09-28T13:15:08.760Z,60.08
2022-09-28T13:18:03.898Z,59.29
2022-09-28T13:21:26.374Z,60.83
2022-09-28T13:24:14.361Z,59.13
2022-09-28T13:26:48.809Z,60.17
2022-09-28T13:29:20.398Z,60.90
2022-09-28T13:31:57.776Z,59.69
2022-09-28T13:34:33.014Z,58.64
2022-09-28T13:37:21.981Z,56.98
2022-09-28T13:40:06.226Z,56.58
2022-09-28T13:43:09.864Z,55.36
2022-09-28T13:45:54.066Z,56.49
2022-09-28T13:49:13.274Z,55.89
2022-09-28T13:52:06.287Z,56.45
2022-09-28T13:55:17.284Z,57.72
2022-09-28T13:57:58.193Z,58.02
2022-09-28T14:00:46.533Z,59.39
2022-09-28T14:03:28.897Z,59.84
2022-09-28T14:06:33.775Z,59.77
2022-09-28T14:09:16.067Z,61.39
2022-09-28T14:11:53.934Z,60.32
2022-09-28T14:14:30.072Z,61.83
2022-09-28T14:17:27.351Z,61.72
2022-09-28T14:20:11.419Z,61.58
2022-09-28T14:23:37.837Z,61.79
2022-09-28T14:27:27.940Z,61.82
2022-09-28T14:30:11.585Z,61.82
2022-09-28T14:32:50.708Z,63.38
2022-09-28T14:35:42.058Z,64.14
2022-09-28T14:38:49.736Z,63.83
2022-09-28T14:41:18.172Z,62.77
2022-09-28T14:43:45.770Z,61.97
2022-09-28T14:46:17.376Z,62.06
2022-09-28T14:48:54.572Z,62.05
2022-09-28T14:51:33.073Z,59.20
2022-09-28T14:54:22.378Z,60.04
2022-09-28T14:56:52.685Z,61.20
2022-09-28T14:59:36.292Z,60.92
2022-09-28T15:02:22.954Z,60.25
2022-09-28T15:05:14.118Z,60.97
2022-09-28T15:07:52.290Z,60.86
2022-09-28T15:10:49.654Z,60.03
2022-09-28T15:13:28.790Z,61.99
2022-09-28T15:16:11.614Z,62.53
2022-09-28T15:19:22.928Z,61.91
2022-09-28T15:21:51.409Z,61.17
2022-09-28T15:24:35.599Z,61.37
2022-09-28T15:27:16.878Z,62.24
2022-09-28T15:29:59.838Z,62.65
2022-09-28T15:32:31.810Z,64.83
2022-09-28T15:35:20.679Z,63.97
2022-09-28T15:37:52.210Z,65.01
2022-09-28T15:40:51.092Z,65.71
2022-09-28T15:43:34.704Z,66.12
2022-09-28T15:46:13.847Z,65.31
2022-09-28T15:48:59.548Z,66.00
2022-09-28T15:51:28.773Z,65.72
2022-09-28T15:54:21.719Z,66.09
2022-09-28T15:57:02.051Z,67.84
2022-09-28T15:59:37.127Z,69.87
2022-09-28T16:02:19.543Z,69.87
2022-09-28T16:04:58.950Z,70.06
2022-09-28T16:07:41.769Z,69.55
2022-09-28T16:10:12.295Z,69.62
2022-09-28T16:12:48.699Z,70.28
2022-09-28T16:15:31.680Z,70.54
2022-09-28T16:18:18.344Z,70.31
2022-09-28T16:20:56.441Z,70.46
2022-09-28T16:23:34.165Z,70.65
2022-09-28T16:26:07.952Z,71.42
2022-09-28T16:28:42.589Z,71.55
2022-09-28T16:31:17.245Z,71.11
2022-09-28T16:34:02.415Z,71.67
2022-09-28T16:36:45.404Z,71.34
2022-09-28T16:39:17.561Z,71.45
2022-09-28T16:42:03.248Z,71.98
2022-09-28T16:44:36.539Z,71.57
2022-09-28T16:47:05.139Z,72.23
2022-09-28T16:49:34.063Z,71.98
2022-09-28T16:52:03.428Z,72.72
2022-09-28T16:54:51.181Z,72.72
2022-09-28T16:57:18.842Z,72.53
2022-09-28T16:59:47.324Z,73.62
2022-09-28T17:02:46.725Z,73.22
2022-09-28T17:05:19.446Z,73.60
2022-09-28T17:08:05.068Z,74.24
2022-09-28T17:11:12.601Z,74.96
2022-09-28T17:13:35.265Z,74.24
2022-09-28T17:16:11.458Z,75.38
2022-09-28T17:18:40.670Z,75.40
2022-09-28T17:21:20.732Z,76.41
2022-09-28T17:23:50.627Z,77.12
2022-09-28T17:26:34.692Z,76.59
2022-09-28T17:29:03.080Z,76.24
2022-09-28T17:31:31.218Z,77.43
2022-09-28T17:33:58.981Z,76.66
2022-09-28T17:36:27.122Z,77.82
2022-09-28T17:38:54.740Z,77.51
2022-09-28T17:41:22.414Z,78.14
2022-09-28T17:43:50.066Z,78.13
2022-09-28T17:46:33.665Z,79.22
2022-09-28T17:49:05.022Z,79.75
2022-09-28T17:51:39.636Z,80.66
2022-09-28T17:54:11.241Z,80.29
2022-09-28T17:56:42.738Z,80.54
2022-09-28T17:59:17.799Z,80.47
2022-09-28T18:01:48.425Z,80.86
2022-09-28T18:04:39.633Z,80.98
2022-09-28T18:07:05.314Z,80.12
2022-09-28T18:09:32.938Z,80.09
2022-09-28T18:12:05.404Z,79.40
2022-09-28T18:14:33.104Z,79.50
2022-09-28T18:17:00.771Z,80.04
2022-09-28T18:19:31.973Z,80.63
2022-09-28T18:22:01.491Z,80.57
2022-09-28T18:24:29.742Z,79.31
2022-09-28T18:26:57.372Z,79.63
2022-09-28T18:29:31.014Z,80.12
2022-09-28T18:32:02.607Z,79.56
2022-09-28T18:34:31.270Z,79.17
2022-09-28T18:36:58.941Z,79.08
2022-09-28T18:39:26.830Z,80.11
2022-09-28T18:41:54.622Z,81.89
2022-09-28T18:44:22.572Z,82.07
2022-09-28T18:46:51.727Z,84.34
2022-09-28T18:49:19.510Z,84.68
2022-09-28T18:51:47.659Z,83.79
2022-09-28T18:54:17.234Z,85.43
2022-09-28T18:56:44.871Z,88.53
2022-09-28T18:59:12.673Z,91.21
2022-09-28T19:01:42.937Z,93.17
2022-09-28T19:04:12.078Z,94.00
2022-09-28T19:06:42.928Z,95.29
2022-09-28T19:09:11.228Z,98.54
2022-09-28T19:11:42.412Z,100.00
2022-09-28T19:14:15.751Z,100.00
2022-09-28T19:16:45.606Z,100.00
2022-09-28T19:19:20.161Z,100.00
2022-09-28T19:21:50.263Z,100.00
2022-09-28T19:24:19.961Z,100.00
2022-09-28T19:26:49.670Z,100.00
2022-09-28T19:29:20.662Z,100.00
2022-09-28T19:31:52.005Z,100.00
2022-09-28T19:34:24.460Z,100.00
2022-09-28T19:36:53.106Z,100.00
2022-09-28T19:39:21.664Z,100.00
2022-09-28T19:41:54.431Z,100.00
2022-09-28T19:44:27.367Z,100.00
2022-09-28T19:47:07.606Z,100.00
2022-09-28T19:49:40.437Z,100.00
2022-09-28T19:52:17.478Z,100.00
2022-09-28T19:54:56.941Z,100.00
2022-09-28T19:57:29.341Z,100.00
2022-09-28T20:00:03.108Z,100.00
2022-09-28T20:02:34.986Z,100.00
2022-09-28T20:05:04.352Z,100.00
2022-09-28T20:07:36.252Z,100.00
2022-09-28T20:10:06.530Z,100.00
2022-09-28T20:12:35.285Z,100.00
2022-09-28T20:15:05.413Z,100.00
2022-09-28T20:17:36.042Z,100.00
2022-09-28T20:20:05.937Z,100.00
2022-09-28T20:22:35.408Z,100.00
2022-09-28T20:25:04.298Z,100.00
2022-09-28T20:27:32.943Z,100.00
2022-09-28T20:30:01.724Z,100.00
2022-09-28T20:32:35.422Z,100.00
2022-09-28T20:35:04.470Z,100.00
2022-09-28T20:37:34.222Z,100.00
2022-09-28T20:40:03.013Z,100.00
2022-09-28T20:42:32.840Z,100.00
2022-09-28T20:45:01.592Z,100.00
2022-09-28T20:47:30.218Z,100.00
2022-09-28T20:49:59.608Z,100.00
2022-09-28T20:52:28.215Z,100.00
2022-09-28T20:54:56.760Z,100.00
2022-09-28T20:57:25.364Z,100.00
2022-09-28T20:59:55.037Z,100.00
2022-09-28T21:02:22.998Z,100.00
2022-09-28T21:04:50.766Z,100.00
2022-09-28T21:07:20.311Z,100.00
2022-09-28T21:09:50.624Z,100.00
2022-09-28T21:12:19.359Z,100.00
2022-09-28T21:14:47.062Z,100.00
2022-09-28T21:17:16.553Z,100.00
2022-09-28T21:19:44.204Z,100.00
2022-09-28T21:22:13.760Z,100.00
2022-09-28T21:24:41.512Z,100.00
2022-09-28T21:27:09.209Z,100.00
2022-09-28T21:29:38.597Z,100.00
2022-09-28T21:32:08.315Z,100.00
2022-09-28T21:34:36.962Z,100.00
2022-09-28T21:37:05.516Z,100.00
2022-09-28T21:39:34.245Z,100.00
2022-09-28T21:42:03.750Z,100.00
2022-09-28T21:44:31.404Z,100.00
2022-09-28T21:46:59.949Z,100.00
2022-09-28T21:49:29.528Z,100.00
2022-09-28T21:51:58.009Z,100.00
2022-09-28T21:54:26.522Z,100.00
2022-09-28T21:56:54.188Z,100.00
2022-09-28T21:59:21.902Z,100.00
2022-09-28T22:01:50.475Z,100.00
2022-09-28T22:04:20.483Z,100.00
2022-09-28T22:06:49.404Z,100.00
2022-09-28T22:09:17.957Z,100.00
2022-09-28T22:11:45.687Z,100.00
2022-09-28T22:14:14.268Z,100.00
2022-09-28T22:16:42.071Z,100.00
2022-09-28T22:19:10.589Z,100.00
2022-09-28T22:21:39.165Z,100.00
2022-09-28T22:24:09.647Z,100.00
2022-09-28T22:26:39.600Z,100.00
2022-09-28T22:29:10.576Z,100.00
2022-09-28T22:31:41.594Z,100.00
2022-09-28T22:34:10.144Z,100.00
2022-09-28T22:36:38.600Z,100.00
2022-09-28T22:39:06.497Z,100.00
2022-09-28T22:41:34.325Z,100.00
2022-09-28T22:44:02.867Z,100.00
2022-09-28T22:46:33.735Z,100.00
2022-09-28T22:49:02.480Z,100.00
2022-09-28T22:51:33.093Z,100.00
2022-09-28T22:54:01.320Z,100.00
2022-09-28T22:56:30.358Z,100.00
2022-09-28T22:58:59.370Z,100.00
2022-09-28T23:01:30.765Z,100.00
2022-09-28T23:03:59.740Z,100.00
2022-09-28T23:06:30.950Z,100.00
2022-09-28T23:09:01.044Z,100.00
2022-09-28T23:11:30.328Z,100.00
2022-09-28T23:13:59.820Z,100.00
2022-09-28T23:16:28.009Z,100.00
2022-09-28T23:18:57.298Z,100.00
2022-09-28T23:21:28.220Z,100.00
2022-09-28T23:24:01.714Z,100.00
2022-09-28T23:26:34.486Z,100.00
2022-09-28T23:29:04.321Z,100.00
2022-09-28T23:31:34.173Z,100.00
2022-09-28T23:34:06.115Z,100.00
2022-09-28T23:36:34.996Z,100.00
2022-09-28T23:39:04.876Z,100.00
2022-09-28T23:41:33.381Z,100.00
2022-09-28T23:44:02.141Z,100.00
2022-09-28T23:46:30.089Z,100.00
2022-09-28T23:48:58.549Z,100.00
2022-09-28T23:51:26.300Z,100.00
2022-09-28T23:53:54.034Z,100.00
2022-09-28T23:56:22.620Z,100.00
2022-09-28T23:58:50.440Z,100.00
